Strona główna
METAR-TAF:

METAR-TAF

Lotnisko :

Anchorage, Alaska, Stany Zjednoczone

Szerokość geograficzna: 61-13N, Długość geograficzna: 149-51W, wysokość: 42 m

Aktualna obserwacja pogody

Raport powstał 1 godzina i 14 minut temu, godzina 12:53 UTC
Cisza
Temperatura 10°C
Wilgotność 66%
Ciśnienie 1012 hPa
Widzialność: 16.1 km
Mało chmury na wysokości 20000 ft

METAR: PAMR 211253Z 00000KT 10SM FEW200 10/04 A2989 RMK AO2 SLP124 T01000044

czas: 06:07 (14:07 UTC)


TAF: brakujący

Obserwacja i prognoza pogody dla ponad 4000 lotnisk (raport METAR i TAF).

Dostępne stacje oznaczono żółtymi i czerwonymi punktami na mapie.

Najedź kursorem aby zobaczyć nazwę stacji.

Kliknij aby zobaczyć obserwacje i prognozy pogody.

Aby zmienić mapę: kliknij na zielony przycisk z czarnym krzyżykiem, aby powiększyć; na zielony przycisk z myślnikiem, aby pomniejszyć; na zielone strzałki, aby przejść do map sąsiednich.


METAR-TAF: